createdAt,value
2022-08-19T00:01:56.962Z,25.84
2022-08-19T00:04:30.496Z,25.85
2022-08-19T00:06:58.898Z,25.82
2022-08-19T00:09:26.426Z,25.82
2022-08-19T00:11:56.378Z,25.80
2022-08-19T00:14:25.305Z,25.79
2022-08-19T00:16:55.396Z,25.78
2022-08-19T00:19:24.451Z,25.75
2022-08-19T00:21:52.229Z,25.72
2022-08-19T00:24:19.833Z,25.70
2022-08-19T00:26:46.967Z,25.68
2022-08-19T00:29:17.874Z,25.66
2022-08-19T00:31:45.267Z,25.62
2022-08-19T00:34:14.321Z,25.60
2022-08-19T00:36:42.433Z,25.55
2022-08-19T00:39:10.638Z,25.50
2022-08-19T00:41:38.051Z,25.49
2022-08-19T00:44:12.002Z,25.48
2022-08-19T00:46:44.032Z,25.47
2022-08-19T00:49:41.724Z,25.44
2022-08-19T00:52:15.454Z,25.42
2022-08-19T00:54:44.414Z,25.40
2022-08-19T00:57:15.719Z,25.38
2022-08-19T01:00:00.943Z,25.36
2022-08-19T01:02:32.011Z,25.33
2022-08-19T01:05:01.283Z,25.29
2022-08-19T01:07:28.173Z,25.27
2022-08-19T01:10:04.673Z,25.25
2022-08-19T01:12:31.937Z,25.23
2022-08-19T01:14:59.922Z,25.18
2022-08-19T01:17:26.864Z,25.18
2022-08-19T01:19:53.654Z,25.14
2022-08-19T01:22:33.730Z,25.13
2022-08-19T01:25:01.694Z,25.11
2022-08-19T01:27:43.795Z,25.10
2022-08-19T01:30:19.762Z,25.07
2022-08-19T01:32:46.639Z,25.04
2022-08-19T01:35:15.689Z,25.03
2022-08-19T01:37:56.660Z,25.00
2022-08-19T01:40:30.042Z,24.98
2022-08-19T01:42:56.930Z,24.98
2022-08-19T01:45:27.654Z,24.95
2022-08-19T01:48:02.122Z,24.95
2022-08-19T01:50:32.505Z,24.96
2022-08-19T01:53:05.929Z,24.93
2022-08-19T01:55:35.394Z,24.82
2022-08-19T01:58:14.401Z,24.83
2022-08-19T02:00:41.673Z,24.81
2022-08-19T02:03:12.084Z,24.82
2022-08-19T02:05:40.109Z,24.81
2022-08-19T02:08:07.865Z,24.81
2022-08-19T02:10:34.998Z,24.79
2022-08-19T02:13:01.795Z,24.76
2022-08-19T02:15:28.613Z,24.72
2022-08-19T02:17:55.400Z,24.67
2022-08-19T02:20:23.401Z,24.63
2022-08-19T02:22:50.317Z,24.60
2022-08-19T02:25:17.255Z,24.59
2022-08-19T02:27:44.421Z,24.59
2022-08-19T02:30:17.732Z,24.61
2022-08-19T02:32:45.199Z,24.57
2022-08-19T02:35:14.582Z,24.56
2022-08-19T02:38:01.336Z,24.56
2022-08-19T02:40:30.744Z,24.54
2022-08-19T02:42:57.567Z,24.54
2022-08-19T02:45:24.449Z,24.50
2022-08-19T02:47:51.325Z,24.47
2022-08-19T02:50:18.597Z,24.44
2022-08-19T02:52:46.355Z,24.41
2022-08-19T02:55:13.154Z,24.39
2022-08-19T02:57:39.966Z,24.37
2022-08-19T03:00:09.843Z,24.36
2022-08-19T03:02:36.705Z,24.37
2022-08-19T03:05:05.552Z,24.39
2022-08-19T03:07:32.349Z,24.39
2022-08-19T03:09:59.525Z,24.42
2022-08-19T03:12:26.390Z,24.40
2022-08-19T03:14:53.698Z,24.42
2022-08-19T03:17:20.907Z,24.41
2022-08-19T03:19:47.741Z,24.41
2022-08-19T03:22:15.011Z,24.40
2022-08-19T03:24:41.839Z,24.39
2022-08-19T03:27:08.690Z,24.38
2022-08-19T03:29:43.139Z,24.36
2022-08-19T03:32:24.439Z,24.32
2022-08-19T03:34:58.540Z,24.29
2022-08-19T03:37:25.335Z,24.27
2022-08-19T03:39:52.845Z,24.25
2022-08-19T03:42:32.483Z,24.22
2022-08-19T03:45:00.239Z,24.19
2022-08-19T03:47:27.039Z,24.17
2022-08-19T03:49:53.858Z,24.15
2022-08-19T03:52:20.654Z,24.10
2022-08-19T03:54:47.442Z,24.08
2022-08-19T03:57:14.269Z,24.04
2022-08-19T03:59:41.197Z,24.01
2022-08-19T04:02:12.366Z,23.99
2022-08-19T04:04:42.043Z,23.96
2022-08-19T04:07:10.341Z,23.94
2022-08-19T04:09:37.805Z,23.91
2022-08-19T04:12:06.642Z,23.89
2022-08-19T04:14:34.820Z,23.85
2022-08-19T04:17:05.655Z,23.84
2022-08-19T04:19:35.156Z,23.82
2022-08-19T04:22:02.353Z,23.82
2022-08-19T04:24:29.224Z,23.80
2022-08-19T04:26:56.761Z,23.80
2022-08-19T04:29:26.335Z,23.81
2022-08-19T04:31:55.638Z,23.82
2022-08-19T04:34:26.151Z,23.81
2022-08-19T04:36:55.525Z,23.82
2022-08-19T04:39:48.493Z,23.82
2022-08-19T04:42:35.988Z,23.80
2022-08-19T04:45:05.411Z,23.79
2022-08-19T04:47:47.469Z,23.78
2022-08-19T04:50:23.490Z,23.77
2022-08-19T04:52:52.695Z,23.77
2022-08-19T04:55:19.693Z,23.76
2022-08-19T04:57:46.535Z,23.78
2022-08-19T05:00:13.872Z,23.78
2022-08-19T05:02:40.775Z,23.78
2022-08-19T05:05:08.310Z,23.79
2022-08-19T05:07:35.493Z,23.80
2022-08-19T05:10:04.251Z,23.82
2022-08-19T05:12:31.080Z,23.83
2022-08-19T05:14:59.066Z,23.86
2022-08-19T05:17:28.964Z,23.87
2022-08-19T05:20:16.799Z,23.87
2022-08-19T05:22:47.033Z,23.89
2022-08-19T05:25:21.631Z,23.87
2022-08-19T05:27:49.134Z,23.89
2022-08-19T05:30:17.198Z,23.86
2022-08-19T05:32:44.474Z,23.90
2022-08-19T05:35:12.573Z,23.91
2022-08-19T05:37:41.081Z,23.91
2022-08-19T05:40:09.542Z,23.93
2022-08-19T05:42:36.369Z,23.91
2022-08-19T05:45:03.997Z,23.92
2022-08-19T05:47:30.816Z,23.96
2022-08-19T05:49:57.650Z,23.97
2022-08-19T05:52:25.454Z,23.97
2022-08-19T05:54:55.645Z,23.97
2022-08-19T05:57:23.659Z,23.94
2022-08-19T05:59:57.631Z,23.94
2022-08-19T06:02:27.261Z,24.00
2022-08-19T06:04:54.160Z,24.05
2022-08-19T06:07:20.977Z,24.06
2022-08-19T06:09:59.728Z,24.10
2022-08-19T06:12:32.440Z,24.15
2022-08-19T06:15:01.103Z,24.17
2022-08-19T06:17:31.285Z,24.17
2022-08-19T06:19:59.454Z,24.17
2022-08-19T06:22:26.867Z,24.13
2022-08-19T06:24:54.798Z,24.15
2022-08-19T06:27:22.720Z,24.18
2022-08-19T06:29:50.092Z,24.19
2022-08-19T06:32:19.508Z,24.23
2022-08-19T06:34:46.817Z,24.26
2022-08-19T06:37:14.622Z,24.30
2022-08-19T06:39:45.650Z,24.35
2022-08-19T06:42:14.121Z,24.38
2022-08-19T06:44:43.803Z,24.41
2022-08-19T06:47:23.464Z,24.43
2022-08-19T06:49:54.894Z,24.43
2022-08-19T06:52:27.755Z,24.45
2022-08-19T06:54:57.062Z,24.47
2022-08-19T06:57:28.090Z,24.50
2022-08-19T06:59:56.450Z,24.54
2022-08-19T07:02:27.109Z,24.56
2022-08-19T07:04:54.459Z,24.56
2022-08-19T07:07:23.133Z,24.57
2022-08-19T07:09:58.545Z,24.62
2022-08-19T07:12:30.551Z,24.64
2022-08-19T07:14:59.011Z,24.69
2022-08-19T07:17:27.878Z,24.71
2022-08-19T07:19:54.925Z,24.71
2022-08-19T07:22:23.815Z,24.73
2022-08-19T07:24:54.057Z,24.74
2022-08-19T07:27:25.184Z,24.74
2022-08-19T07:29:57.282Z,24.78
2022-08-19T07:32:28.343Z,24.81
2022-08-19T07:34:56.635Z,24.82
2022-08-19T07:37:27.361Z,24.83
2022-08-19T07:39:56.403Z,24.83
2022-08-19T07:42:23.462Z,24.84
2022-08-19T07:44:50.993Z,24.86
2022-08-19T07:47:48.353Z,24.84
2022-08-19T07:50:12.046Z,24.81
2022-08-19T07:52:45.145Z,24.80
2022-08-19T07:55:41.105Z,24.79
2022-08-19T07:58:05.665Z,24.86
2022-08-19T08:00:32.484Z,24.92
2022-08-19T08:02:59.282Z,25.04
2022-08-19T08:05:44.900Z,25.14
2022-08-19T08:08:44.515Z,25.29
2022-08-19T08:11:17.668Z,25.40
2022-08-19T08:13:47.092Z,25.50
2022-08-19T08:16:32.072Z,25.62
2022-08-19T08:18:59.281Z,25.69
2022-08-19T08:21:26.216Z,25.71
2022-08-19T08:23:56.431Z,25.71
2022-08-19T08:26:23.816Z,25.71
2022-08-19T08:28:50.839Z,25.71
2022-08-19T08:31:19.515Z,25.65
2022-08-19T08:33:48.880Z,25.59
2022-08-19T08:36:16.353Z,25.60
2022-08-19T08:38:47.630Z,25.63
2022-08-19T08:41:53.604Z,25.70
2022-08-19T08:47:26.399Z,25.76
2022-08-19T08:50:00.682Z,25.76
2022-08-19T08:52:36.361Z,25.77
2022-08-19T08:55:12.527Z,25.75
2022-08-19T08:57:48.542Z,25.74
2022-08-19T09:00:27.472Z,25.71
2022-08-19T09:02:59.350Z,25.71
2022-08-19T09:06:04.287Z,25.81
2022-08-19T09:08:44.311Z,25.96
2022-08-19T09:11:47.189Z,26.05
2022-08-19T09:14:51.963Z,26.10
2022-08-19T09:17:28.364Z,26.15
2022-08-19T09:20:11.230Z,26.22
2022-08-19T09:22:40.491Z,26.27
2022-08-19T09:25:10.049Z,26.33
2022-08-19T09:27:43.691Z,26.39
2022-08-19T09:30:26.369Z,26.42
2022-08-19T09:32:54.083Z,26.37
2022-08-19T09:35:24.387Z,26.33
2022-08-19T09:37:57.600Z,26.30
2022-08-19T09:40:33.474Z,26.32
2022-08-19T09:43:09.860Z,26.31
2022-08-19T09:45:37.082Z,26.32
2022-08-19T09:48:04.314Z,26.34
2022-08-19T09:50:35.041Z,26.38
2022-08-19T09:53:01.853Z,26.40
2022-08-19T09:55:31.001Z,26.39
2022-08-19T09:58:01.203Z,26.36
2022-08-19T10:00:28.136Z,26.36
2022-08-19T10:02:54.913Z,26.41
2022-08-19T10:05:42.607Z,26.50
2022-08-19T10:08:13.534Z,26.58
2022-08-19T10:10:46.679Z,26.64
2022-08-19T10:13:16.693Z,26.73
2022-08-19T10:15:45.021Z,26.80
2022-08-19T10:18:14.882Z,26.90
2022-08-19T10:20:42.759Z,26.98
2022-08-19T10:23:10.451Z,27.05
2022-08-19T10:25:38.396Z,27.06
2022-08-19T10:28:10.614Z,27.08
2022-08-19T10:30:38.338Z,27.11
2022-08-19T10:33:08.674Z,27.17
2022-08-19T10:35:56.356Z,27.20
2022-08-19T10:38:31.528Z,27.23
2022-08-19T10:41:07.499Z,27.30
2022-08-19T10:43:37.715Z,27.36
2022-08-19T10:46:06.614Z,27.39
2022-08-19T10:48:42.598Z,27.49
2022-08-19T10:51:29.053Z,27.55
2022-08-19T10:53:56.644Z,27.57
2022-08-19T10:56:42.418Z,27.59
2022-08-19T10:59:09.804Z,27.60
2022-08-19T11:01:36.903Z,27.60
2022-08-19T11:04:05.356Z,27.59
2022-08-19T11:06:35.403Z,27.63
2022-08-19T11:09:02.250Z,27.66
2022-08-19T11:11:29.473Z,27.70
2022-08-19T11:13:56.764Z,27.82
2022-08-19T11:16:27.461Z,27.92
2022-08-19T11:18:59.295Z,28.00
2022-08-19T11:21:34.066Z,28.05
2022-08-19T11:24:05.039Z,28.10
2022-08-19T11:26:32.491Z,28.13
2022-08-19T11:29:00.770Z,28.13
2022-08-19T11:31:32.224Z,28.13
2022-08-19T11:34:02.443Z,28.14
2022-08-19T11:36:29.900Z,28.17
2022-08-19T11:38:56.768Z,28.16
2022-08-19T11:41:25.498Z,28.17
2022-08-19T11:43:56.008Z,28.20
2022-08-19T11:46:26.373Z,28.24
2022-08-19T11:48:53.471Z,28.26
2022-08-19T11:51:25.580Z,28.27
2022-08-19T11:53:53.993Z,28.28
2022-08-19T11:56:22.275Z,28.34
2022-08-19T11:58:49.430Z,28.38
2022-08-19T12:01:20.222Z,28.46
2022-08-19T12:03:49.739Z,28.55
2022-08-19T12:06:24.893Z,28.64
2022-08-19T12:08:51.690Z,28.71
2022-08-19T12:11:19.464Z,28.80
2022-08-19T12:13:47.099Z,28.85
2022-08-19T12:16:20.791Z,28.89
2022-08-19T12:18:48.278Z,28.94
2022-08-19T12:21:17.289Z,28.99
2022-08-19T12:23:46.274Z,29.06
2022-08-19T12:26:13.745Z,29.13
2022-08-19T12:28:40.739Z,29.18
2022-08-19T12:31:07.713Z,29.19
2022-08-19T12:33:34.946Z,29.20
2022-08-19T12:36:05.453Z,29.24
2022-08-19T12:38:33.324Z,29.29
2022-08-19T12:41:00.623Z,29.37
2022-08-19T12:43:28.354Z,29.44
2022-08-19T12:45:55.146Z,29.46
2022-08-19T12:48:32.941Z,29.49
2022-08-19T12:51:06.237Z,29.53
2022-08-19T12:53:33.035Z,29.61
2022-08-19T12:56:01.507Z,29.69
2022-08-19T12:58:29.856Z,29.78
2022-08-19T13:00:56.743Z,29.84
2022-08-19T13:03:29.814Z,29.86
2022-08-19T13:05:57.682Z,29.89
2022-08-19T13:08:24.768Z,29.89
2022-08-19T13:10:51.750Z,29.87
2022-08-19T13:13:18.594Z,29.83
2022-08-19T13:15:46.211Z,29.79
2022-08-19T13:18:15.349Z,29.79
2022-08-19T13:20:42.631Z,29.83
2022-08-19T13:23:19.478Z,29.85
2022-08-19T13:25:46.254Z,29.83
2022-08-19T13:28:14.970Z,29.77
2022-08-19T13:31:26.415Z,29.73
2022-08-19T13:33:53.224Z,29.69
2022-08-19T13:36:20.015Z,29.68
2022-08-19T13:38:46.833Z,29.66
2022-08-19T13:41:15.001Z,29.67
2022-08-19T13:43:42.292Z,29.69
2022-08-19T13:46:14.901Z,29.75
2022-08-19T13:48:42.913Z,29.81
2022-08-19T13:51:11.286Z,29.88
2022-08-19T13:53:40.285Z,29.94
2022-08-19T13:56:09.083Z,30.01
2022-08-19T13:58:36.099Z,30.13
2022-08-19T14:01:03.054Z,30.21
2022-08-19T14:03:29.990Z,30.28
2022-08-19T14:05:57.323Z,30.35
2022-08-19T14:08:25.201Z,30.42
2022-08-19T14:10:52.075Z,30.48
2022-08-19T14:13:22.711Z,30.57
2022-08-19T14:15:50.986Z,30.66
2022-08-19T14:18:19.377Z,30.71
2022-08-19T14:20:46.799Z,30.71
2022-08-19T14:23:14.620Z,30.75
2022-08-19T14:25:41.496Z,30.82
2022-08-19T14:28:08.653Z,30.86
2022-08-19T14:30:38.639Z,30.93
2022-08-19T14:33:06.636Z,30.99
2022-08-19T14:35:35.618Z,31.03
2022-08-19T14:38:07.172Z,31.07
2022-08-19T14:40:34.170Z,31.10
2022-08-19T14:43:05.336Z,31.15
2022-08-19T14:45:40.673Z,31.16
2022-08-19T14:48:19.045Z,31.16
2022-08-19T14:50:46.596Z,31.11
2022-08-19T14:53:13.514Z,31.06
2022-08-19T14:55:45.590Z,31.04
2022-08-19T14:58:29.754Z,31.00
2022-08-19T15:01:00.988Z,30.99
2022-08-19T15:03:29.020Z,31.00
2022-08-19T15:05:57.410Z,31.01
2022-08-19T15:08:25.833Z,31.01
2022-08-19T15:10:53.600Z,31.00
2022-08-19T15:13:20.409Z,30.99
2022-08-19T15:15:48.325Z,30.93
2022-08-19T15:18:15.622Z,30.89
2022-08-19T15:20:44.351Z,30.82
2022-08-19T15:23:18.217Z,30.77
2022-08-19T15:25:45.137Z,30.75
2022-08-19T15:28:12.774Z,30.71
2022-08-19T15:30:41.602Z,30.69
2022-08-19T15:33:08.821Z,30.71
2022-08-19T15:35:35.702Z,30.72
2022-08-19T15:38:02.543Z,30.71
2022-08-19T15:40:29.353Z,30.72
2022-08-19T15:42:57.265Z,30.73
2022-08-19T15:45:32.634Z,30.72
2022-08-19T15:48:04.531Z,30.73
2022-08-19T15:50:32.301Z,30.75
2022-08-19T15:53:07.332Z,30.73
2022-08-19T15:55:38.054Z,30.70
2022-08-19T15:58:31.867Z,30.70
2022-08-19T16:01:21.827Z,30.68
2022-08-19T16:04:14.805Z,30.70
2022-08-19T16:06:53.237Z,30.68
2022-08-19T16:09:27.496Z,30.68
2022-08-19T16:12:01.189Z,30.68
2022-08-19T16:14:30.539Z,30.69
2022-08-19T16:16:57.467Z,30.72
2022-08-19T16:19:25.204Z,30.74
2022-08-19T16:21:55.908Z,30.75
2022-08-19T16:24:26.462Z,30.75
2022-08-19T16:26:54.527Z,30.75
2022-08-19T16:29:34.490Z,30.74
2022-08-19T16:32:10.379Z,30.75
2022-08-19T16:34:40.017Z,30.76
2022-08-19T16:37:07.163Z,30.76
2022-08-19T16:39:34.072Z,30.77
2022-08-19T16:42:01.072Z,30.78
2022-08-19T16:44:29.914Z,30.79
2022-08-19T16:47:00.378Z,30.81
2022-08-19T16:49:54.473Z,30.81
2022-08-19T16:52:17.799Z,30.83
2022-08-19T16:54:44.952Z,30.87
2022-08-19T16:57:12.889Z,30.87
2022-08-19T16:59:42.505Z,30.86
2022-08-19T17:02:15.716Z,30.85
2022-08-19T17:04:42.497Z,30.86
2022-08-19T17:07:10.610Z,30.87
2022-08-19T17:09:37.989Z,30.88
2022-08-19T17:12:05.208Z,30.88
2022-08-19T17:14:32.003Z,30.86
2022-08-19T17:16:58.784Z,30.86
2022-08-19T17:19:25.682Z,30.84
2022-08-19T17:21:52.826Z,30.82
2022-08-19T17:24:19.963Z,30.77
2022-08-19T17:26:46.744Z,30.72
2022-08-19T17:29:14.119Z,30.66
2022-08-19T17:31:40.938Z,30.63
2022-08-19T17:34:09.238Z,30.57
2022-08-19T17:36:36.283Z,30.52
2022-08-19T17:39:05.207Z,30.48
2022-08-19T17:41:34.092Z,30.45
2022-08-19T17:44:02.391Z,30.40
2022-08-19T17:46:30.289Z,30.35
2022-08-19T17:48:58.273Z,30.30
2022-08-19T17:51:31.389Z,30.24
2022-08-19T17:53:59.201Z,30.19
2022-08-19T17:56:28.640Z,30.14
2022-08-19T17:58:59.872Z,30.11
2022-08-19T18:01:41.610Z,30.07
2022-08-19T18:04:18.760Z,30.02
2022-08-19T18:06:52.623Z,29.99
2022-08-19T18:09:23.792Z,29.95
2022-08-19T18:11:53.382Z,29.93
2022-08-19T18:14:28.099Z,29.87
2022-08-19T18:17:02.771Z,29.82
2022-08-19T18:19:30.215Z,29.78
2022-08-19T18:22:22.342Z,29.73
2022-08-19T18:24:49.201Z,29.68
2022-08-19T18:27:16.046Z,29.65
2022-08-19T18:29:43.357Z,29.61
2022-08-19T18:32:13.431Z,29.56
2022-08-19T18:34:42.248Z,29.50
2022-08-19T18:37:09.759Z,29.43
2022-08-19T18:39:55.645Z,29.37
2022-08-19T18:42:41.439Z,29.30
2022-08-19T18:45:28.149Z,29.22
2022-08-19T18:48:26.933Z,29.13
2022-08-19T18:50:59.533Z,29.05
2022-08-19T18:53:30.491Z,28.97
2022-08-19T18:55:58.563Z,28.91
2022-08-19T18:58:32.057Z,28.85
2022-08-19T19:01:13.611Z,28.79
2022-08-19T19:03:45.268Z,28.72
2022-08-19T19:06:15.382Z,28.64
2022-08-19T19:08:42.191Z,28.59
2022-08-19T19:11:09.265Z,28.54
2022-08-19T19:13:39.757Z,28.48
2022-08-19T19:16:11.391Z,28.43
2022-08-19T19:18:38.365Z,28.37
2022-08-19T19:21:06.213Z,28.33
2022-08-19T19:23:33.475Z,28.29
2022-08-19T19:26:00.794Z,28.24
2022-08-19T19:28:28.059Z,28.19
2022-08-19T19:31:00.047Z,28.16
2022-08-19T19:33:28.091Z,28.11
2022-08-19T19:35:54.889Z,28.07
2022-08-19T19:38:21.759Z,28.03
2022-08-19T19:40:48.894Z,28.00
2022-08-19T19:43:17.099Z,27.95
2022-08-19T19:45:44.609Z,27.92
2022-08-19T19:48:13.423Z,27.88
2022-08-19T19:50:40.399Z,27.85
2022-08-19T19:53:07.243Z,27.83
2022-08-19T19:55:34.073Z,27.78
2022-08-19T19:58:00.890Z,27.76
2022-08-19T20:00:28.818Z,27.72
2022-08-19T20:02:55.911Z,27.69
2022-08-19T20:05:23.914Z,27.67
2022-08-19T20:08:11.405Z,27.63
2022-08-19T20:10:39.753Z,27.60
2022-08-19T20:13:07.068Z,27.58
2022-08-19T20:15:35.434Z,27.56
2022-08-19T20:18:04.752Z,27.54
2022-08-19T20:20:32.127Z,27.51
2022-08-19T20:22:58.909Z,27.50
2022-08-19T20:25:25.764Z,27.46
2022-08-19T20:27:52.673Z,27.45
2022-08-19T20:30:23.149Z,27.41
2022-08-19T20:32:50.824Z,27.38
2022-08-19T20:35:20.992Z,27.36
2022-08-19T20:37:48.351Z,27.34
2022-08-19T20:40:16.473Z,27.32
2022-08-19T20:42:50.463Z,27.31
2022-08-19T20:45:33.060Z,27.29
2022-08-19T20:48:03.414Z,27.26
2022-08-19T20:50:33.034Z,27.25
2022-08-19T20:53:00.717Z,27.23
2022-08-19T20:55:28.798Z,27.22
2022-08-19T20:57:56.489Z,27.19
2022-08-19T21:00:23.479Z,27.18
2022-08-19T21:02:50.297Z,27.18
2022-08-19T21:05:17.165Z,27.16
2022-08-19T21:07:44.285Z,27.13
2022-08-19T21:10:11.180Z,27.13
2022-08-19T21:12:39.036Z,27.10
2022-08-19T21:15:07.121Z,27.08
2022-08-19T21:17:33.907Z,27.07
2022-08-19T21:20:00.689Z,27.05
2022-08-19T21:22:27.507Z,27.03
2022-08-19T21:24:54.309Z,27.02
2022-08-19T21:27:21.086Z,27.00
2022-08-19T21:29:49.021Z,26.99
2022-08-19T21:32:16.270Z,26.98
2022-08-19T21:34:46.348Z,26.97
2022-08-19T21:37:25.248Z,26.94
2022-08-19T21:39:56.022Z,26.93
2022-08-19T21:42:23.352Z,26.90
2022-08-19T21:44:50.143Z,26.89
2022-08-19T21:47:17.358Z,26.88
2022-08-19T21:49:44.186Z,26.86
2022-08-19T21:52:11.099Z,26.83
2022-08-19T21:54:38.658Z,26.81
2022-08-19T21:57:10.706Z,26.78
2022-08-19T21:59:44.065Z,26.75
2022-08-19T22:02:21.302Z,26.73
2022-08-19T22:04:50.750Z,26.71
2022-08-19T22:07:18.253Z,26.70
2022-08-19T22:09:47.582Z,26.67
2022-08-19T22:12:31.429Z,26.67
2022-08-19T22:14:59.941Z,26.63
2022-08-19T22:17:30.205Z,26.62
2022-08-19T22:19:58.398Z,26.58
2022-08-19T22:22:29.736Z,26.58
2022-08-19T22:25:09.191Z,26.56
2022-08-19T22:27:36.536Z,26.53
2022-08-19T22:30:08.265Z,26.50
2022-08-19T22:32:37.274Z,26.49
2022-08-19T22:35:08.204Z,26.46
2022-08-19T22:41:41.379Z,26.34
2022-08-19T22:44:11.205Z,26.33
2022-08-19T22:46:38.314Z,26.31
2022-08-19T22:49:05.140Z,26.29
2022-08-19T22:51:50.287Z,26.28
2022-08-19T22:54:17.612Z,26.24
2022-08-19T22:56:44.926Z,26.23
2022-08-19T22:59:12.161Z,26.21
2022-08-19T23:01:41.626Z,26.18
2022-08-19T23:04:08.434Z,26.16
2022-08-19T23:06:38.213Z,26.14
2022-08-19T23:09:10.265Z,26.13
2022-08-19T23:11:42.051Z,26.10
2022-08-19T23:14:11.244Z,26.09
2022-08-19T23:16:38.559Z,26.07
2022-08-19T23:19:07.140Z,26.05
2022-08-19T23:21:36.146Z,26.04
2022-08-19T23:24:03.315Z,26.03
2022-08-19T23:26:35.161Z,26.02
2022-08-19T23:29:21.486Z,26.00
2022-08-19T23:31:49.541Z,25.98
2022-08-19T23:34:16.538Z,25.98
2022-08-19T23:36:43.395Z,25.97
2022-08-19T23:39:10.225Z,25.95
2022-08-19T23:41:37.022Z,25.94
2022-08-19T23:44:04.113Z,25.92
2022-08-19T23:46:31.252Z,25.90
2022-08-19T23:49:08.994Z,25.85
2022-08-19T23:51:35.819Z,25.83
2022-08-19T23:54:02.629Z,25.81
2022-08-19T23:56:29.426Z,25.81
2022-08-19T23:58:56.224Z,25.79
